| Date | Time | Temp. (oF) | Dew Point (oF) | Rel. Hum. (%) | Press. (in.) | Wind Dir. | Wind Speed (mph) | Hourly Rainfall (in.) |
|
|---|---|---|---|---|---|---|---|---|---|
| 1 | 01/23 | 00:00 | 14 | 11 | 88 | 30.47 | SSE | 0 | 0.00 |
| 2 | 01/22 | 23:00 | 16 | 13 | 88 | 30.48 | NNW | 1 | 0.00 |
| 3 | 01/22 | 22:00 | 18 | 14 | 87 | 30.50 | NNE | 1 | 0.00 |
| 4 | 01/22 | 21:00 | 20 | 15 | 83 | 30.51 | E | 0 | 0.00 |
| 5 | 01/22 | 20:00 | 22 | 16 | 80 | 30.51 | E | 0 | 0.00 |
| 6 | 01/22 | 19:00 | 24 | 18 | 78 | 30.52 | E | 1 | 0.00 |
| 7 | 01/22 | 18:00 | 28 | 19 | 69 | 30.49 | NE | 1 | 0.00 |
| 8 | 01/22 | 17:00 | 30 | 19 | 65 | 30.47 | ESE | 1 | 0.00 |
| 9 | 01/22 | 16:00 | 32 | 20 | 62 | 30.48 | SSW | 4 | 0.00 |
| 10 | 01/22 | 15:00 | 31 | 19 | 62 | 30.49 | W | 4 | 0.00 |
| 11 | 01/22 | 14:00 | 30 | 19 | 64 | 30.49 | NNW | 5 | 0.00 |
| 12 | 01/22 | 13:00 | 30 | 20 | 66 | 30.51 | WNW | 3 | 0.00 |
| 13 | 01/22 | 12:00 | 28 | 18 | 67 | 30.54 | SW | 4 | 0.00 |
| 14 | 01/22 | 11:00 | 25 | 16 | 71 | 30.56 | NNW | 1 | 0.00 |
| 15 | 01/22 | 10:00 | 20 | 14 | 80 | 30.58 | S | 0 | 0.00 |
| 16 | 01/22 | 09:00 | 14 | 10 | 86 | 30.57 | SSW | 0 | 0.00 |
| 17 | 01/22 | 08:00 | 9 | 5 | 84 | 30.55 | WNW | 0 | 0.00 |
| 18 | 01/22 | 07:00 | 11 | 8 | 90 | 30.55 | SSE | 0 | 0.00 |
| 19 | 01/22 | 06:00 | 9 | 6 | 90 | 30.53 | WSW | 1 | 0.00 |
| 20 | 01/22 | 05:00 | 10 | 6 | 87 | 30.51 | W | 1 | 0.00 |
| 21 | 01/22 | 04:00 | 10 | 6 | 85 | 30.50 | S | 0 | 0.00 |
| 22 | 01/22 | 03:00 | 11 | 7 | 84 | 30.49 | S | 0 | 0.00 |
| 23 | 01/22 | 02:00 | 14 | 9 | 83 | 30.47 | WSW | 0 | 0.00 |
| 24 | 01/22 | 01:00 | 14 | 10 | 85 | 30.46 | SW | 3 | 0.00 |